sensor_id;sensor_type;location;lat;lon;timestamp;temperature;humidity
34099;DHT22;20374;49.474;10.944;2024-03-08T00:00:11;0.60;99.90
34099;DHT22;20374;49.474;10.944;2024-03-08T00:02:42;0.60;99.90
34099;DHT22;20374;49.474;10.944;2024-03-08T00:05:08;0.60;99.90
34099;DHT22;20374;49.474;10.944;2024-03-08T00:07:35;0.60;99.90
34099;DHT22;20374;49.474;10.944;2024-03-08T00:10:02;0.50;99.90
34099;DHT22;20374;49.474;10.944;2024-03-08T00:12:28;0.50;99.90
34099;DHT22;20374;49.474;10.944;2024-03-08T00:14:54;0.50;99.90
34099;DHT22;20374;49.474;10.944;2024-03-08T00:17:21;0.50;99.90
34099;DHT22;20374;49.474;10.944;2024-03-08T00:19:51;0.40;99.90
34099;DHT22;20374;49.474;10.944;2024-03-08T00:22:17;0.50;99.90
34099;DHT22;20374;49.474;10.944;2024-03-08T00:24:43;0.50;99.90
34099;DHT22;20374;49.474;10.944;2024-03-08T00:27:09;0.50;99.90
34099;DHT22;20374;49.474;10.944;2024-03-08T00:29:37;0.50;99.90
34099;DHT22;20374;49.474;10.944;2024-03-08T00:32:04;0.40;99.90
34099;DHT22;20374;49.474;10.944;2024-03-08T00:34:30;0.40;99.90
34099;DHT22;20374;49.474;10.944;2024-03-08T00:36:57;0.40;99.90
34099;DHT22;20374;49.474;10.944;2024-03-08T00:39:24;0.40;99.90
34099;DHT22;20374;49.474;10.944;2024-03-08T00:41:51;0.40;99.90
34099;DHT22;20374;49.474;10.944;2024-03-08T00:44:17;0.50;99.90
34099;DHT22;20374;49.474;10.944;2024-03-08T00:46:42;0.40;99.90
34099;DHT22;20374;49.474;10.944;2024-03-08T00:49:09;0.40;99.90
34099;DHT22;20374;49.474;10.944;2024-03-08T00:51:35;0.40;99.90
34099;DHT22;20374;49.474;10.944;2024-03-08T00:54:01;0.40;99.90
34099;DHT22;20374;49.474;10.944;2024-03-08T00:56:27;0.30;99.90
34099;DHT22;20374;49.474;10.944;2024-03-08T00:58:53;0.30;99.90
34099;DHT22;20374;49.474;10.944;2024-03-08T01:01:19;0.20;99.90
34099;DHT22;20374;49.474;10.944;2024-03-08T01:03:45;0.20;99.90
34099;DHT22;20374;49.474;10.944;2024-03-08T01:06:11;0.20;99.90
34099;DHT22;20374;49.474;10.944;2024-03-08T01:08:37;0.20;99.90
34099;DHT22;20374;49.474;10.944;2024-03-08T01:11:04;0.10;99.90
34099;DHT22;20374;49.474;10.944;2024-03-08T01:13:30;0.00;99.90
34099;DHT22;20374;49.474;10.944;2024-03-08T01:15:56;0.00;99.90
34099;DHT22;20374;49.474;10.944;2024-03-08T01:18:22;-0.10;99.90
34099;DHT22;20374;49.474;10.944;2024-03-08T01:20:48;-0.10;99.90
34099;DHT22;20374;49.474;10.944;2024-03-08T01:23:14;0.00;99.90
34099;DHT22;20374;49.474;10.944;2024-03-08T01:25:40;-0.10;99.90
34099;DHT22;20374;49.474;10.944;2024-03-08T01:28:07;0.00;99.90
34099;DHT22;20374;49.474;10.944;2024-03-08T01:30:33;0.10;99.90
34099;DHT22;20374;49.474;10.944;2024-03-08T01:33:00;0.20;99.90
34099;DHT22;20374;49.474;10.944;2024-03-08T01:35:26;0.20;99.90
34099;DHT22;20374;49.474;10.944;2024-03-08T01:37:53;0.30;99.90
34099;DHT22;20374;49.474;10.944;2024-03-08T01:40:19;0.40;99.90
34099;DHT22;20374;49.474;10.944;2024-03-08T01:42:45;0.40;99.90
34099;DHT22;20374;49.474;10.944;2024-03-08T01:45:10;0.40;99.90
34099;DHT22;20374;49.474;10.944;2024-03-08T01:47:37;0.40;99.90
34099;DHT22;20374;49.474;10.944;2024-03-08T01:50:03;0.30;99.90
34099;DHT22;20374;49.474;10.944;2024-03-08T01:52:32;0.30;99.90
34099;DHT22;20374;49.474;10.944;2024-03-08T01:55:03;0.30;99.90
34099;DHT22;20374;49.474;10.944;2024-03-08T01:57:32;0.20;99.90
34099;DHT22;20374;49.474;10.944;2024-03-08T02:00:04;0.20;99.90
34099;DHT22;20374;49.474;10.944;2024-03-08T02:02:32;0.10;99.90
34099;DHT22;20374;49.474;10.944;2024-03-08T02:04:58;0.20;99.90
34099;DHT22;20374;49.474;10.944;2024-03-08T02:07:25;0.10;99.90
34099;DHT22;20374;49.474;10.944;2024-03-08T02:09:51;0.00;99.90
34099;DHT22;20374;49.474;10.944;2024-03-08T02:12:18;0.00;99.90
34099;DHT22;20374;49.474;10.944;2024-03-08T02:14:46;-0.10;99.90
34099;DHT22;20374;49.474;10.944;2024-03-08T02:17:12;-0.10;99.90
34099;DHT22;20374;49.474;10.944;2024-03-08T02:19:38;-0.10;99.90
34099;DHT22;20374;49.474;10.944;2024-03-08T02:22:05;0.10;99.90
34099;DHT22;20374;49.474;10.944;2024-03-08T02:24:32;0.20;99.90
34099;DHT22;20374;49.474;10.944;2024-03-08T02:26:59;0.20;99.90
34099;DHT22;20374;49.474;10.944;2024-03-08T02:29:24;0.20;99.90
34099;DHT22;20374;49.474;10.944;2024-03-08T02:31:51;0.10;99.90
34099;DHT22;20374;49.474;10.944;2024-03-08T02:34:17;0.10;99.90
34099;DHT22;20374;49.474;10.944;2024-03-08T02:36:43;0.00;99.90
34099;DHT22;20374;49.474;10.944;2024-03-08T02:39:09;0.00;99.90
34099;DHT22;20374;49.474;10.944;2024-03-08T02:41:36;0.00;99.90
34099;DHT22;20374;49.474;10.944;2024-03-08T02:44:02;-0.10;99.90
34099;DHT22;20374;49.474;10.944;2024-03-08T02:46:30;-0.10;99.90
34099;DHT22;20374;49.474;10.944;2024-03-08T02:48:56;-0.10;99.90
34099;DHT22;20374;49.474;10.944;2024-03-08T02:51:22;-0.20;99.90
34099;DHT22;20374;49.474;10.944;2024-03-08T02:53:48;-0.20;99.90
34099;DHT22;20374;49.474;10.944;2024-03-08T02:56:17;-0.20;99.90
34099;DHT22;20374;49.474;10.944;2024-03-08T02:58:43;-0.20;99.90
34099;DHT22;20374;49.474;10.944;2024-03-08T03:01:15;-0.30;99.90
34099;DHT22;20374;49.474;10.944;2024-03-08T03:03:41;-0.30;99.90
34099;DHT22;20374;49.474;10.944;2024-03-08T03:06:08;-0.40;99.90
34099;DHT22;20374;49.474;10.944;2024-03-08T03:08:34;-0.40;99.90
34099;DHT22;20374;49.474;10.944;2024-03-08T03:10:59;-0.40;99.90
34099;DHT22;20374;49.474;10.944;2024-03-08T03:13:25;-0.50;99.90
34099;DHT22;20374;49.474;10.944;2024-03-08T03:15:51;-0.50;99.90
34099;DHT22;20374;49.474;10.944;2024-03-08T03:18:17;-0.50;99.90
34099;DHT22;20374;49.474;10.944;2024-03-08T03:20:47;-0.60;99.90
34099;DHT22;20374;49.474;10.944;2024-03-08T03:23:13;-0.60;99.90
34099;DHT22;20374;49.474;10.944;2024-03-08T03:25:39;-0.60;99.90
34099;DHT22;20374;49.474;10.944;2024-03-08T03:28:07;-0.60;99.90
34099;DHT22;20374;49.474;10.944;2024-03-08T03:30:33;-0.70;99.90
34099;DHT22;20374;49.474;10.944;2024-03-08T03:33:00;-0.80;99.90
34099;DHT22;20374;49.474;10.944;2024-03-08T03:35:27;-0.80;99.90
34099;DHT22;20374;49.474;10.944;2024-03-08T03:37:53;-0.80;99.90
34099;DHT22;20374;49.474;10.944;2024-03-08T03:40:32;-0.90;99.90
34099;DHT22;20374;49.474;10.944;2024-03-08T03:42:58;-0.90;99.90
34099;DHT22;20374;49.474;10.944;2024-03-08T03:45:24;-1.00;99.90
34099;DHT22;20374;49.474;10.944;2024-03-08T03:47:50;-0.90;99.90
34099;DHT22;20374;49.474;10.944;2024-03-08T03:50:21;-0.90;99.90
34099;DHT22;20374;49.474;10.944;2024-03-08T03:52:48;-0.90;99.90
34099;DHT22;20374;49.474;10.944;2024-03-08T03:55:14;-0.90;99.90
34099;DHT22;20374;49.474;10.944;2024-03-08T03:57:41;-0.90;99.90
34099;DHT22;20374;49.474;10.944;2024-03-08T04:00:07;-0.80;99.90
34099;DHT22;20374;49.474;10.944;2024-03-08T04:02:40;-0.80;99.90
34099;DHT22;20374;49.474;10.944;2024-03-08T04:05:07;-0.80;99.90
34099;DHT22;20374;49.474;10.944;2024-03-08T04:07:34;-0.80;99.90
34099;DHT22;20374;49.474;10.944;2024-03-08T04:10:04;-0.80;99.90
34099;DHT22;20374;49.474;10.944;2024-03-08T04:12:32;-0.80;99.90
34099;DHT22;20374;49.474;10.944;2024-03-08T04:14:58;-0.90;99.90
34099;DHT22;20374;49.474;10.944;2024-03-08T04:17:24;-0.90;99.90
34099;DHT22;20374;49.474;10.944;2024-03-08T04:19:50;-0.80;99.90
34099;DHT22;20374;49.474;10.944;2024-03-08T04:22:16;-0.70;99.90
34099;DHT22;20374;49.474;10.944;2024-03-08T04:24:44;-0.50;99.90
34099;DHT22;20374;49.474;10.944;2024-03-08T04:27:10;-0.50;99.90
34099;DHT22;20374;49.474;10.944;2024-03-08T04:29:36;-0.50;99.90
34099;DHT22;20374;49.474;10.944;2024-03-08T04:32:06;-0.40;99.90
34099;DHT22;20374;49.474;10.944;2024-03-08T04:34:32;-0.40;99.90
34099;DHT22;20374;49.474;10.944;2024-03-08T04:37:00;-0.40;99.90
34099;DHT22;20374;49.474;10.944;2024-03-08T04:39:27;-0.30;99.90
34099;DHT22;20374;49.474;10.944;2024-03-08T04:42:02;-0.30;99.90
34099;DHT22;20374;49.474;10.944;2024-03-08T04:44:36;-0.30;99.90
34099;DHT22;20374;49.474;10.944;2024-03-08T04:47:05;-0.30;99.90
34099;DHT22;20374;49.474;10.944;2024-03-08T04:49:32;-0.30;99.90
34099;DHT22;20374;49.474;10.944;2024-03-08T04:52:03;-0.30;99.90
34099;DHT22;20374;49.474;10.944;2024-03-08T04:54:30;-0.30;99.90
34099;DHT22;20374;49.474;10.944;2024-03-08T04:56:56;-0.30;99.90
34099;DHT22;20374;49.474;10.944;2024-03-08T04:59:22;-0.30;99.90
34099;DHT22;20374;49.474;10.944;2024-03-08T05:01:48;-0.10;99.90
34099;DHT22;20374;49.474;10.944;2024-03-08T05:04:14;-0.30;99.90
34099;DHT22;20374;49.474;10.944;2024-03-08T05:06:40;-0.30;99.90
34099;DHT22;20374;49.474;10.944;2024-03-08T05:09:06;-0.30;99.90
34099;DHT22;20374;49.474;10.944;2024-03-08T05:11:45;-0.30;99.90
34099;DHT22;20374;49.474;10.944;2024-03-08T05:14:13;-0.30;99.90
34099;DHT22;20374;49.474;10.944;2024-03-08T05:16:46;-0.40;99.90
34099;DHT22;20374;49.474;10.944;2024-03-08T05:19:19;-0.40;99.90
34099;DHT22;20374;49.474;10.944;2024-03-08T05:21:49;-0.40;99.90
34099;DHT22;20374;49.474;10.944;2024-03-08T05:24:15;-0.50;99.90
34099;DHT22;20374;49.474;10.944;2024-03-08T05:26:42;-0.40;99.90
34099;DHT22;20374;49.474;10.944;2024-03-08T05:29:08;-0.50;99.90
34099;DHT22;20374;49.474;10.944;2024-03-08T05:31:55;-0.60;99.90
34099;DHT22;20374;49.474;10.944;2024-03-08T05:34:21;-0.60;99.90
34099;DHT22;20374;49.474;10.944;2024-03-08T05:36:48;-0.60;99.90
34099;DHT22;20374;49.474;10.944;2024-03-08T05:39:17;-0.50;99.90
34099;DHT22;20374;49.474;10.944;2024-03-08T05:41:43;-0.50;99.90
34099;DHT22;20374;49.474;10.944;2024-03-08T05:44:10;-0.50;99.90
34099;DHT22;20374;49.474;10.944;2024-03-08T05:46:37;-0.50;99.90
34099;DHT22;20374;49.474;10.944;2024-03-08T05:49:06;-0.40;99.90
34099;DHT22;20374;49.474;10.944;2024-03-08T05:51:33;-0.40;99.90
34099;DHT22;20374;49.474;10.944;2024-03-08T05:54:09;-0.40;99.90
34099;DHT22;20374;49.474;10.944;2024-03-08T05:56:36;-0.40;99.90
34099;DHT22;20374;49.474;10.944;2024-03-08T05:59:02;-0.40;99.90
34099;DHT22;20374;49.474;10.944;2024-03-08T06:01:28;-0.40;99.90
34099;DHT22;20374;49.474;10.944;2024-03-08T06:03:55;-0.40;99.90
34099;DHT22;20374;49.474;10.944;2024-03-08T06:06:23;-0.30;99.90
34099;DHT22;20374;49.474;10.944;2024-03-08T06:08:50;-0.30;99.90
34099;DHT22;20374;49.474;10.944;2024-03-08T06:11:17;-0.40;99.90
34099;DHT22;20374;49.474;10.944;2024-03-08T06:13:44;-0.30;99.90
34099;DHT22;20374;49.474;10.944;2024-03-08T06:16:10;-0.20;99.90
34099;DHT22;20374;49.474;10.944;2024-03-08T06:18:37;-0.10;99.90
34099;DHT22;20374;49.474;10.944;2024-03-08T06:21:05;-0.10;99.90
34099;DHT22;20374;49.474;10.944;2024-03-08T06:23:34;0.00;99.90
34099;DHT22;20374;49.474;10.944;2024-03-08T06:26:07;0.00;99.90
34099;DHT22;20374;49.474;10.944;2024-03-08T06:28:34;0.20;99.90
34099;DHT22;20374;49.474;10.944;2024-03-08T06:31:01;0.80;99.90
34099;DHT22;20374;49.474;10.944;2024-03-08T06:33:27;1.40;99.90
34099;DHT22;20374;49.474;10.944;2024-03-08T06:35:54;2.00;99.90
34099;DHT22;20374;49.474;10.944;2024-03-08T06:38:23;2.50;99.90
34099;DHT22;20374;49.474;10.944;2024-03-08T06:40:49;3.00;99.90
34099;DHT22;20374;49.474;10.944;2024-03-08T06:43:17;3.40;99.90
34099;DHT22;20374;49.474;10.944;2024-03-08T06:45:44;4.00;99.90
34099;DHT22;20374;49.474;10.944;2024-03-08T06:48:18;4.30;99.90
34099;DHT22;20374;49.474;10.944;2024-03-08T06:50:45;4.40;99.90
34099;DHT22;20374;49.474;10.944;2024-03-08T06:53:12;4.50;99.90
34099;DHT22;20374;49.474;10.944;2024-03-08T06:55:38;4.40;99.90
34099;DHT22;20374;49.474;10.944;2024-03-08T06:58:04;4.20;99.90
34099;DHT22;20374;49.474;10.944;2024-03-08T07:00:30;4.40;99.90
34099;DHT22;20374;49.474;10.944;2024-03-08T07:02:59;4.50;99.90
34099;DHT22;20374;49.474;10.944;2024-03-08T07:05:28;4.90;99.90
34099;DHT22;20374;49.474;10.944;2024-03-08T07:07:54;4.70;99.90
34099;DHT22;20374;49.474;10.944;2024-03-08T07:10:21;4.40;99.90
34099;DHT22;20374;49.474;10.944;2024-03-08T07:12:53;4.20;99.90
34099;DHT22;20374;49.474;10.944;2024-03-08T07:15:19;3.90;99.90
34099;DHT22;20374;49.474;10.944;2024-03-08T07:17:46;4.40;99.90
34099;DHT22;20374;49.474;10.944;2024-03-08T07:20:13;5.00;99.90
34099;DHT22;20374;49.474;10.944;2024-03-08T07:22:41;5.20;99.90
34099;DHT22;20374;49.474;10.944;2024-03-08T07:25:07;4.90;99.90
34099;DHT22;20374;49.474;10.944;2024-03-08T07:27:34;4.60;99.90
34099;DHT22;20374;49.474;10.944;2024-03-08T07:30:05;4.50;99.90
34099;DHT22;20374;49.474;10.944;2024-03-08T07:32:31;5.00;99.90
34099;DHT22;20374;49.474;10.944;2024-03-08T07:34:57;5.50;99.90
34099;DHT22;20374;49.474;10.944;2024-03-08T07:37:24;5.80;99.90
34099;DHT22;20374;49.474;10.944;2024-03-08T07:39:50;5.80;99.90
34099;DHT22;20374;49.474;10.944;2024-03-08T07:42:16;6.30;99.90
34099;DHT22;20374;49.474;10.944;2024-03-08T07:44:42;6.80;99.90
34099;DHT22;20374;49.474;10.944;2024-03-08T07:47:08;6.60;99.90
34099;DHT22;20374;49.474;10.944;2024-03-08T07:49:38;6.30;99.90
34099;DHT22;20374;49.474;10.944;2024-03-08T07:52:04;6.30;99.90
34099;DHT22;20374;49.474;10.944;2024-03-08T07:54:31;6.30;99.90
34099;DHT22;20374;49.474;10.944;2024-03-08T07:56:57;6.50;99.90
34099;DHT22;20374;49.474;10.944;2024-03-08T07:59:23;6.60;99.30
34099;DHT22;20374;49.474;10.944;2024-03-08T08:01:49;6.40;99.40
34099;DHT22;20374;49.474;10.944;2024-03-08T08:04:15;6.30;99.90
34099;DHT22;20374;49.474;10.944;2024-03-08T08:06:43;6.30;99.90
34099;DHT22;20374;49.474;10.944;2024-03-08T08:09:09;6.20;99.90
34099;DHT22;20374;49.474;10.944;2024-03-08T08:11:41;6.60;99.90
34099;DHT22;20374;49.474;10.944;2024-03-08T08:14:09;6.90;99.70
34099;DHT22;20374;49.474;10.944;2024-03-08T08:16:36;7.60;98.20
34099;DHT22;20374;49.474;10.944;2024-03-08T08:19:08;8.20;97.20
34099;DHT22;20374;49.474;10.944;2024-03-08T08:21:37;8.70;95.40
34099;DHT22;20374;49.474;10.944;2024-03-08T08:24:03;8.60;95.50
34099;DHT22;20374;49.474;10.944;2024-03-08T08:26:30;8.60;95.30
34099;DHT22;20374;49.474;10.944;2024-03-08T08:28:56;9.10;94.50
34099;DHT22;20374;49.474;10.944;2024-03-08T08:31:22;9.70;93.40
34099;DHT22;20374;49.474;10.944;2024-03-08T08:33:48;9.90;92.50
34099;DHT22;20374;49.474;10.944;2024-03-08T08:36:15;9.60;92.20
34099;DHT22;20374;49.474;10.944;2024-03-08T08:38:40;9.10;92.90
34099;DHT22;20374;49.474;10.944;2024-03-08T08:41:09;8.60;93.90
34099;DHT22;20374;49.474;10.944;2024-03-08T08:43:36;8.70;94.30
34099;DHT22;20374;49.474;10.944;2024-03-08T08:46:02;9.50;93.50
34099;DHT22;20374;49.474;10.944;2024-03-08T08:48:30;9.90;92.20
34099;DHT22;20374;49.474;10.944;2024-03-08T08:50:56;10.50;90.50
34099;DHT22;20374;49.474;10.944;2024-03-08T08:53:22;10.80;90.00
34099;DHT22;20374;49.474;10.944;2024-03-08T08:55:48;10.40;89.40
34099;DHT22;20374;49.474;10.944;2024-03-08T08:58:14;9.50;91.80
34099;DHT22;20374;49.474;10.944;2024-03-08T09:00:40;9.10;92.60
34099;DHT22;20374;49.474;10.944;2024-03-08T09:03:06;8.50;93.70
34099;DHT22;20374;49.474;10.944;2024-03-08T09:05:36;7.80;93.90
34099;DHT22;20374;49.474;10.944;2024-03-08T09:08:03;7.40;95.30
34099;DHT22;20374;49.474;10.944;2024-03-08T09:10:29;7.20;96.00
34099;DHT22;20374;49.474;10.944;2024-03-08T09:12:54;7.00;96.40
34099;DHT22;20374;49.474;10.944;2024-03-08T09:15:21;6.80;96.00
34099;DHT22;20374;49.474;10.944;2024-03-08T09:17:47;6.60;96.70
34099;DHT22;20374;49.474;10.944;2024-03-08T09:20:14;6.50;97.30
34099;DHT22;20374;49.474;10.944;2024-03-08T09:22:49;6.50;97.30
34099;DHT22;20374;49.474;10.944;2024-03-08T09:25:15;6.50;97.60
34099;DHT22;20374;49.474;10.944;2024-03-08T09:27:41;6.70;97.60
34099;DHT22;20374;49.474;10.944;2024-03-08T09:30:07;6.70;97.80
34099;DHT22;20374;49.474;10.944;2024-03-08T09:32:33;6.80;97.60
34099;DHT22;20374;49.474;10.944;2024-03-08T09:34:59;6.80;97.50
34099;DHT22;20374;49.474;10.944;2024-03-08T09:37:26;6.90;97.30
34099;DHT22;20374;49.474;10.944;2024-03-08T09:39:52;6.80;96.80
34099;DHT22;20374;49.474;10.944;2024-03-08T09:42:18;6.80;97.00
34099;DHT22;20374;49.474;10.944;2024-03-08T09:44:46;6.80;97.10
34099;DHT22;20374;49.474;10.944;2024-03-08T09:47:13;6.80;96.90
34099;DHT22;20374;49.474;10.944;2024-03-08T09:49:41;7.00;97.20
34099;DHT22;20374;49.474;10.944;2024-03-08T09:52:07;7.00;96.50
34099;DHT22;20374;49.474;10.944;2024-03-08T09:54:34;7.00;96.50
34099;DHT22;20374;49.474;10.944;2024-03-08T09:57:01;7.00;96.90
34099;DHT22;20374;49.474;10.944;2024-03-08T09:59:30;7.10;96.80
34099;DHT22;20374;49.474;10.944;2024-03-08T10:02:14;7.20;96.50
34099;DHT22;20374;49.474;10.944;2024-03-08T10:04:40;7.30;96.00
34099;DHT22;20374;49.474;10.944;2024-03-08T10:07:12;7.40;96.90
34099;DHT22;20374;49.474;10.944;2024-03-08T10:09:38;7.40;95.80
34099;DHT22;20374;49.474;10.944;2024-03-08T10:12:04;7.40;95.80
34099;DHT22;20374;49.474;10.944;2024-03-08T10:14:31;7.40;95.90
34099;DHT22;20374;49.474;10.944;2024-03-08T10:16:59;7.40;95.80
34099;DHT22;20374;49.474;10.944;2024-03-08T10:19:27;7.40;95.50
34099;DHT22;20374;49.474;10.944;2024-03-08T10:21:55;7.40;96.00
34099;DHT22;20374;49.474;10.944;2024-03-08T10:24:25;7.50;96.20
34099;DHT22;20374;49.474;10.944;2024-03-08T10:26:58;7.70;96.20
34099;DHT22;20374;49.474;10.944;2024-03-08T10:29:24;7.80;96.30
34099;DHT22;20374;49.474;10.944;2024-03-08T10:31:50;8.00;95.20
34099;DHT22;20374;49.474;10.944;2024-03-08T10:34:17;8.10;94.60
34099;DHT22;20374;49.474;10.944;2024-03-08T10:36:43;8.00;94.60
34099;DHT22;20374;49.474;10.944;2024-03-08T10:39:22;8.00;94.20
34099;DHT22;20374;49.474;10.944;2024-03-08T10:41:56;7.90;94.00
34099;DHT22;20374;49.474;10.944;2024-03-08T10:47:19;8.20;94.00
34099;DHT22;20374;49.474;10.944;2024-03-08T10:52:32;9.10;93.20
34099;DHT22;20374;49.474;10.944;2024-03-08T10:55:02;9.30;91.60
34099;DHT22;20374;49.474;10.944;2024-03-08T10:57:31;9.20;91.20
34099;DHT22;20374;49.474;10.944;2024-03-08T11:00:02;9.00;91.20
34099;DHT22;20374;49.474;10.944;2024-03-08T11:02:30;8.90;90.70
34099;DHT22;20374;49.474;10.944;2024-03-08T11:04:56;9.10;91.90
34099;DHT22;20374;49.474;10.944;2024-03-08T11:07:22;9.50;91.10
34099;DHT22;20374;49.474;10.944;2024-03-08T11:09:48;9.90;90.80
34099;DHT22;20374;49.474;10.944;2024-03-08T11:12:27;10.10;90.60
34099;DHT22;20374;49.474;10.944;2024-03-08T11:15:02;10.20;88.90
34099;DHT22;20374;49.474;10.944;2024-03-08T11:20:14;10.00;88.30
34099;DHT22;20374;49.474;10.944;2024-03-08T11:22:42;10.00;88.90
34099;DHT22;20374;49.474;10.944;2024-03-08T11:25:34;10.00;88.00
34099;DHT22;20374;49.474;10.944;2024-03-08T11:28:15;10.00;86.80
34099;DHT22;20374;49.474;10.944;2024-03-08T11:33:39;10.30;87.10
34099;DHT22;20374;49.474;10.944;2024-03-08T11:36:13;10.70;86.40
34099;DHT22;20374;49.474;10.944;2024-03-08T11:38:48;10.80;84.90
34099;DHT22;20374;49.474;10.944;2024-03-08T11:41:18;10.70;83.20
34099;DHT22;20374;49.474;10.944;2024-03-08T11:46:56;10.70;82.80
34099;DHT22;20374;49.474;10.944;2024-03-08T11:49:22;11.00;85.10
34099;DHT22;20374;49.474;10.944;2024-03-08T11:51:52;11.20;84.20
34099;DHT22;20374;49.474;10.944;2024-03-08T11:54:22;11.30;81.60
34099;DHT22;20374;49.474;10.944;2024-03-08T11:56:51;11.50;82.30
34099;DHT22;20374;49.474;10.944;2024-03-08T11:59:17;11.40;79.20
34099;DHT22;20374;49.474;10.944;2024-03-08T12:01:44;11.50;80.80
34099;DHT22;20374;49.474;10.944;2024-03-08T12:04:21;11.50;80.80
34099;DHT22;20374;49.474;10.944;2024-03-08T12:06:50;11.40;78.30
34099;DHT22;20374;49.474;10.944;2024-03-08T12:09:16;11.30;80.00
34099;DHT22;20374;49.474;10.944;2024-03-08T12:11:42;11.40;79.60
34099;DHT22;20374;49.474;10.944;2024-03-08T12:14:08;11.50;80.90
34099;DHT22;20374;49.474;10.944;2024-03-08T12:16:37;11.60;79.10
34099;DHT22;20374;49.474;10.944;2024-03-08T12:19:03;11.80;78.90
34099;DHT22;20374;49.474;10.944;2024-03-08T12:21:31;11.80;79.10
34099;DHT22;20374;49.474;10.944;2024-03-08T12:24:08;11.80;78.90
34099;DHT22;20374;49.474;10.944;2024-03-08T12:26:38;11.90;78.20
34099;DHT22;20374;49.474;10.944;2024-03-08T12:31:46;11.70;76.10
34099;DHT22;20374;49.474;10.944;2024-03-08T12:34:12;11.70;77.10
34099;DHT22;20374;49.474;10.944;2024-03-08T12:36:50;11.90;76.70
34099;DHT22;20374;49.474;10.944;2024-03-08T12:39:19;12.10;76.00
34099;DHT22;20374;49.474;10.944;2024-03-08T12:41:52;12.40;76.70
34099;DHT22;20374;49.474;10.944;2024-03-08T12:44:19;12.80;73.10
34099;DHT22;20374;49.474;10.944;2024-03-08T12:46:47;13.10;73.70
34099;DHT22;20374;49.474;10.944;2024-03-08T12:49:14;13.20;70.80
34099;DHT22;20374;49.474;10.944;2024-03-08T12:51:44;13.30;70.50
34099;DHT22;20374;49.474;10.944;2024-03-08T12:54:10;13.60;70.70
34099;DHT22;20374;49.474;10.944;2024-03-08T12:56:36;14.30;72.90
34099;DHT22;20374;49.474;10.944;2024-03-08T12:59:06;14.80;69.10
34099;DHT22;20374;49.474;10.944;2024-03-08T13:01:36;15.00;65.10
34099;DHT22;20374;49.474;10.944;2024-03-08T13:04:05;15.10;66.50
34099;DHT22;20374;49.474;10.944;2024-03-08T13:06:32;15.60;66.40
34099;DHT22;20374;49.474;10.944;2024-03-08T13:08:58;15.90;63.90
34099;DHT22;20374;49.474;10.944;2024-03-08T13:11:26;15.50;61.30
34099;DHT22;20374;49.474;10.944;2024-03-08T13:13:53;15.70;62.40
34099;DHT22;20374;49.474;10.944;2024-03-08T13:16:19;16.00;62.20
34099;DHT22;20374;49.474;10.944;2024-03-08T13:18:48;16.20;60.80
34099;DHT22;20374;49.474;10.944;2024-03-08T13:21:15;16.20;60.20
34099;DHT22;20374;49.474;10.944;2024-03-08T13:23:44;16.00;60.00
34099;DHT22;20374;49.474;10.944;2024-03-08T13:26:16;15.90;61.20
34099;DHT22;20374;49.474;10.944;2024-03-08T13:28:43;16.50;60.60
34099;DHT22;20374;49.474;10.944;2024-03-08T13:31:09;16.20;59.60
34099;DHT22;20374;49.474;10.944;2024-03-08T13:33:40;16.20;59.50
34099;DHT22;20374;49.474;10.944;2024-03-08T13:36:08;16.40;59.20
34099;DHT22;20374;49.474;10.944;2024-03-08T13:38:44;16.60;58.20
34099;DHT22;20374;49.474;10.944;2024-03-08T13:41:14;16.70;58.30
34099;DHT22;20374;49.474;10.944;2024-03-08T13:43:51;16.80;57.70
34099;DHT22;20374;49.474;10.944;2024-03-08T13:46:17;16.90;57.80
34099;DHT22;20374;49.474;10.944;2024-03-08T13:48:43;17.20;57.50
34099;DHT22;20374;49.474;10.944;2024-03-08T13:51:09;17.50;57.40
34099;DHT22;20374;49.474;10.944;2024-03-08T13:53:38;17.40;56.70
34099;DHT22;20374;49.474;10.944;2024-03-08T13:56:05;17.40;56.90
34099;DHT22;20374;49.474;10.944;2024-03-08T13:58:37;17.40;56.70
34099;DHT22;20374;49.474;10.944;2024-03-08T14:01:03;17.40;56.70
34099;DHT22;20374;49.474;10.944;2024-03-08T14:03:31;17.10;56.60
34099;DHT22;20374;49.474;10.944;2024-03-08T14:05:58;17.20;57.20
34099;DHT22;20374;49.474;10.944;2024-03-08T14:08:24;17.30;56.90
34099;DHT22;20374;49.474;10.944;2024-03-08T14:10:52;17.10;56.80
34099;DHT22;20374;49.474;10.944;2024-03-08T14:13:19;16.60;56.80
34099;DHT22;20374;49.474;10.944;2024-03-08T14:15:45;16.70;57.00
34099;DHT22;20374;49.474;10.944;2024-03-08T14:18:11;17.10;57.70
34099;DHT22;20374;49.474;10.944;2024-03-08T14:20:39;17.00;58.50
34099;DHT22;20374;49.474;10.944;2024-03-08T14:23:05;17.10;59.40
34099;DHT22;20374;49.474;10.944;2024-03-08T14:25:36;17.20;59.30
34099;DHT22;20374;49.474;10.944;2024-03-08T14:28:02;17.10;60.20
34099;DHT22;20374;49.474;10.944;2024-03-08T14:30:35;17.50;59.20
34099;DHT22;20374;49.474;10.944;2024-03-08T14:33:04;17.00;59.60
34099;DHT22;20374;49.474;10.944;2024-03-08T14:35:35;16.80;60.20
34099;DHT22;20374;49.474;10.944;2024-03-08T14:38:01;16.70;59.50
34099;DHT22;20374;49.474;10.944;2024-03-08T14:40:27;16.60;59.30
34099;DHT22;20374;49.474;10.944;2024-03-08T14:42:53;16.20;59.80
34099;DHT22;20374;49.474;10.944;2024-03-08T14:45:19;16.30;59.60
34099;DHT22;20374;49.474;10.944;2024-03-08T14:47:49;16.20;60.00
34099;DHT22;20374;49.474;10.944;2024-03-08T14:50:19;16.30;59.80
34099;DHT22;20374;49.474;10.944;2024-03-08T14:52:46;16.40;59.80
34099;DHT22;20374;49.474;10.944;2024-03-08T14:55:20;16.30;59.80
34099;DHT22;20374;49.474;10.944;2024-03-08T14:57:49;15.90;60.70
34099;DHT22;20374;49.474;10.944;2024-03-08T15:00:18;15.50;59.80
34099;DHT22;20374;49.474;10.944;2024-03-08T15:02:55;15.60;60.40
34099;DHT22;20374;49.474;10.944;2024-03-08T15:05:22;15.40;60.70
34099;DHT22;20374;49.474;10.944;2024-03-08T15:07:58;15.20;61.70
34099;DHT22;20374;49.474;10.944;2024-03-08T15:10:28;14.90;61.30
34099;DHT22;20374;49.474;10.944;2024-03-08T15:12:56;15.00;62.20
34099;DHT22;20374;49.474;10.944;2024-03-08T15:15:24;15.00;61.40
34099;DHT22;20374;49.474;10.944;2024-03-08T15:17:51;14.70;62.50
34099;DHT22;20374;49.474;10.944;2024-03-08T15:20:19;14.60;63.90
34099;DHT22;20374;49.474;10.944;2024-03-08T15:22:54;14.50;64.80
34099;DHT22;20374;49.474;10.944;2024-03-08T15:25:24;14.40;65.00
34099;DHT22;20374;49.474;10.944;2024-03-08T15:27:53;14.00;65.50
34099;DHT22;20374;49.474;10.944;2024-03-08T15:30:23;13.90;66.20
34099;DHT22;20374;49.474;10.944;2024-03-08T15:32:52;13.70;66.80
34099;DHT22;20374;49.474;10.944;2024-03-08T15:35:25;13.80;68.30
34099;DHT22;20374;49.474;10.944;2024-03-08T15:37:52;13.50;67.20
34099;DHT22;20374;49.474;10.944;2024-03-08T15:40:18;13.20;67.70
34099;DHT22;20374;49.474;10.944;2024-03-08T15:43:00;13.00;69.30